sensor_id;sensor_type;location;lat;lon;timestamp;pressure;altitude;pressure_sealevel;temperature;humidity
75717;BME280;64333;50.138;14.332;2023-06-22T00:01:55;98322.22;;;24.53;72.10
75717;BME280;64333;50.138;14.332;2023-06-22T00:04:22;98323.81;;;24.46;71.86
75717;BME280;64333;50.138;14.332;2023-06-22T00:06:47;98321.50;;;24.61;70.84
75717;BME280;64333;50.138;14.332;2023-06-22T00:09:12;98325.84;;;24.52;71.08
75717;BME280;64333;50.138;14.332;2023-06-22T00:11:38;98315.91;;;24.46;71.52
75717;BME280;64333;50.138;14.332;2023-06-22T00:14:04;98331.38;;;24.41;71.95
75717;BME280;64333;50.138;14.332;2023-06-22T00:16:29;98335.16;;;24.39;72.02
75717;BME280;64333;50.138;14.332;2023-06-22T00:18:54;98334.41;;;24.64;70.91
75717;BME280;64333;50.138;14.332;2023-06-22T00:21:20;98335.81;;;24.76;70.49
75717;BME280;64333;50.138;14.332;2023-06-22T00:23:46;98332.28;;;24.85;70.18
75717;BME280;64333;50.138;14.332;2023-06-22T00:26:12;98326.75;;;24.78;69.44
75717;BME280;64333;50.138;14.332;2023-06-22T00:28:38;98326.75;;;24.78;69.01
75717;BME280;64333;50.138;14.332;2023-06-22T00:31:03;98332.28;;;24.85;68.11
75717;BME280;64333;50.138;14.332;2023-06-22T00:33:29;98332.88;;;25.04;67.89
75717;BME280;64333;50.138;14.332;2023-06-22T00:35:54;98332.25;;;25.10;67.06
75717;BME280;64333;50.138;14.332;2023-06-22T00:38:20;98346.25;;;25.03;67.80
75717;BME280;64333;50.138;14.332;2023-06-22T00:40:46;98347.28;;;24.84;67.40
75717;BME280;64333;50.138;14.332;2023-06-22T00:43:11;98332.28;;;24.85;68.48
75717;BME280;64333;50.138;14.332;2023-06-22T00:45:36;98342.69;;;24.69;68.99
75717;BME280;64333;50.138;14.332;2023-06-22T00:48:02;98335.84;;;24.58;69.98
75717;BME280;64333;50.138;14.332;2023-06-22T00:50:32;98328.63;;;24.51;70.88
75717;BME280;64333;50.138;14.332;2023-06-22T00:53:00;98337.09;;;24.37;70.67
75717;BME280;64333;50.138;14.332;2023-06-22T00:55:26;98333.72;;;24.44;71.25
75717;BME280;64333;50.138;14.332;2023-06-22T00:57:52;98325.47;;;24.47;70.25
75717;BME280;64333;50.138;14.332;2023-06-22T01:00:23;98318.28;;;23.61;73.62
75717;BME280;64333;50.138;14.332;2023-06-22T01:02:50;98305.59;;;23.47;74.67
75717;BME280;64333;50.138;14.332;2023-06-22T01:05:21;98314.34;;;23.47;75.11
75717;BME280;64333;50.138;14.332;2023-06-22T01:10:29;98304.97;;;23.89;73.37
75717;BME280;64333;50.138;14.332;2023-06-22T01:13:01;98316.78;;;23.22;76.95
75717;BME280;64333;50.138;14.332;2023-06-22T01:17:56;98300.91;;;22.95;78.22
75717;BME280;64333;50.138;14.332;2023-06-22T01:20:23;98306.88;;;22.97;78.52
75717;BME280;64333;50.138;14.332;2023-06-22T01:25:26;98306.03;;;23.42;76.36
75717;BME280;64333;50.138;14.332;2023-06-22T01:28:05;98313.75;;;23.26;76.19
75717;BME280;64333;50.138;14.332;2023-06-22T01:30:41;98296.41;;;23.24;76.27
75717;BME280;64333;50.138;14.332;2023-06-22T01:33:10;98302.69;;;23.50;75.61
75717;BME280;64333;50.138;14.332;2023-06-22T01:35:37;98307.91;;;23.59;75.32
75717;BME280;64333;50.138;14.332;2023-06-22T01:38:04;98303.78;;;23.47;76.14
75717;BME280;64333;50.138;14.332;2023-06-22T01:40:31;98304.75;;;23.73;73.73
75717;BME280;64333;50.138;14.332;2023-06-22T01:43:00;98298.41;;;23.03;76.27
75717;BME280;64333;50.138;14.332;2023-06-22T01:45:26;98284.88;;;22.79;76.65
75717;BME280;64333;50.138;14.332;2023-06-22T01:47:52;98298.09;;;23.06;76.01
75717;BME280;64333;50.138;14.332;2023-06-22T01:50:18;98298.69;;;23.00;75.69
75717;BME280;64333;50.138;14.332;2023-06-22T01:52:43;98300.44;;;23.09;75.19
75717;BME280;64333;50.138;14.332;2023-06-22T01:55:08;98302.94;;;23.10;75.43
75717;BME280;64333;50.138;14.332;2023-06-22T01:57:34;98301.25;;;23.55;74.30
75717;BME280;64333;50.138;14.332;2023-06-22T02:00:04;98308.66;;;23.06;75.17
75717;BME280;64333;50.138;14.332;2023-06-22T02:03:08;98319.72;;;23.09;75.13
75717;BME280;64333;50.138;14.332;2023-06-22T02:05:37;98313.72;;;23.36;73.87
75717;BME280;64333;50.138;14.332;2023-06-22T02:08:17;98306.56;;;23.46;73.40
75717;BME280;64333;50.138;14.332;2023-06-22T02:10:45;98314.09;;;23.41;73.52
75717;BME280;64333;50.138;14.332;2023-06-22T02:13:11;98317.03;;;23.38;73.53
75717;BME280;64333;50.138;14.332;2023-06-22T02:15:37;98318.09;;;23.45;73.24
75717;BME280;64333;50.138;14.332;2023-06-22T02:18:03;98299.69;;;23.35;72.86
75717;BME280;64333;50.138;14.332;2023-06-22T02:20:29;98319.75;;;23.73;72.15
75717;BME280;64333;50.138;14.332;2023-06-22T02:22:54;98315.03;;;23.49;72.49
75717;BME280;64333;50.138;14.332;2023-06-22T02:25:20;98314.88;;;23.51;72.29
75717;BME280;64333;50.138;14.332;2023-06-22T02:27:46;98322.88;;;23.59;72.15
75717;BME280;64333;50.138;14.332;2023-06-22T02:30:12;98319.66;;;23.92;70.39
75717;BME280;64333;50.138;14.332;2023-06-22T02:32:37;98322.31;;;24.09;69.93
75717;BME280;64333;50.138;14.332;2023-06-22T02:35:03;98325.88;;;24.17;69.81
75717;BME280;64333;50.138;14.332;2023-06-22T02:37:32;98319.38;;;23.85;70.15
75717;BME280;64333;50.138;14.332;2023-06-22T02:39:57;98311.63;;;23.83;70.57
75717;BME280;64333;50.138;14.332;2023-06-22T02:42:23;98307.16;;;23.93;70.43
75717;BME280;64333;50.138;14.332;2023-06-22T02:44:48;98315.69;;;24.22;69.53
75717;BME280;64333;50.138;14.332;2023-06-22T02:47:14;98316.13;;;24.00;69.80
75717;BME280;64333;50.138;14.332;2023-06-22T02:49:42;98311.78;;;23.82;70.26
75717;BME280;64333;50.138;14.332;2023-06-22T02:52:10;98312.72;;;23.91;70.41
75717;BME280;64333;50.138;14.332;2023-06-22T02:54:35;98304.31;;;24.04;70.09
75717;BME280;64333;50.138;14.332;2023-06-22T02:57:00;98296.31;;;23.97;69.98
75717;BME280;64333;50.138;14.332;2023-06-22T02:59:28;98307.84;;;23.96;70.27
75717;BME280;64333;50.138;14.332;2023-06-22T03:01:54;98294.13;;;23.92;69.89
75717;BME280;64333;50.138;14.332;2023-06-22T03:04:19;98313.41;;;23.92;70.45
75717;BME280;64333;50.138;14.332;2023-06-22T03:06:45;98310.13;;;23.81;70.57
75717;BME280;64333;50.138;14.332;2023-06-22T03:09:16;98307.19;;;23.84;70.75
75717;BME280;64333;50.138;14.332;2023-06-22T03:11:41;98302.50;;;23.78;70.39
75717;BME280;64333;50.138;14.332;2023-06-22T03:14:07;98314.38;;;23.65;71.03
75717;BME280;64333;50.138;14.332;2023-06-22T03:16:32;98320.72;;;23.72;70.81
75717;BME280;64333;50.138;14.332;2023-06-22T03:18:58;98317.78;;;23.74;71.13
75717;BME280;64333;50.138;14.332;2023-06-22T03:21:28;98322.47;;;23.80;70.62
75717;BME280;64333;50.138;14.332;2023-06-22T03:23:54;98326.63;;;23.83;70.03
75717;BME280;64333;50.138;14.332;2023-06-22T03:26:20;98315.75;;;23.69;70.91
75717;BME280;64333;50.138;14.332;2023-06-22T03:28:46;98326.91;;;23.36;71.90
75717;BME280;64333;50.138;14.332;2023-06-22T03:31:11;98330.25;;;23.55;71.02
75717;BME280;64333;50.138;14.332;2023-06-22T03:33:36;98333.41;;;23.32;71.42
75717;BME280;64333;50.138;14.332;2023-06-22T03:36:02;98336.09;;;23.13;72.05
75717;BME280;64333;50.138;14.332;2023-06-22T03:38:27;98333.63;;;23.74;69.96
75717;BME280;64333;50.138;14.332;2023-06-22T03:40:53;98336.44;;;24.00;69.17
75717;BME280;64333;50.138;14.332;2023-06-22T03:43:18;98337.88;;;24.12;68.54
75717;BME280;64333;50.138;14.332;2023-06-22T03:45:44;98333.63;;;23.74;69.41
75717;BME280;64333;50.138;14.332;2023-06-22T03:48:11;98326.00;;;23.98;69.23
75717;BME280;64333;50.138;14.332;2023-06-22T03:50:36;98322.03;;;24.29;68.38
75717;BME280;64333;50.138;14.332;2023-06-22T03:53:02;98320.00;;;24.23;67.42
75717;BME280;64333;50.138;14.332;2023-06-22T03:55:27;98339.50;;;23.96;68.12
75717;BME280;64333;50.138;14.332;2023-06-22T03:57:53;98337.78;;;24.21;67.84
75717;BME280;64333;50.138;14.332;2023-06-22T04:00:22;98330.31;;;24.34;66.92
75717;BME280;64333;50.138;14.332;2023-06-22T04:02:47;98323.88;;;24.54;67.23
75717;BME280;64333;50.138;14.332;2023-06-22T04:05:13;98320.75;;;24.68;66.77
75717;BME280;64333;50.138;14.332;2023-06-22T04:07:38;98315.47;;;24.68;66.09
75717;BME280;64333;50.138;14.332;2023-06-22T04:10:04;98307.88;;;24.73;66.00
75717;BME280;64333;50.138;14.332;2023-06-22T04:12:30;98317.06;;;24.87;66.03
75717;BME280;64333;50.138;14.332;2023-06-22T04:14:55;98299.91;;;24.91;65.87
75717;BME280;64333;50.138;14.332;2023-06-22T04:17:21;98302.19;;;25.11;65.23
75717;BME280;64333;50.138;14.332;2023-06-22T04:19:46;98296.28;;;25.17;65.85
75717;BME280;64333;50.138;14.332;2023-06-22T04:22:12;98290.06;;;25.26;65.66
75717;BME280;64333;50.138;14.332;2023-06-22T04:24:37;98295.22;;;25.36;65.19
75717;BME280;64333;50.138;14.332;2023-06-22T04:27:03;98305.34;;;25.40;64.97
75717;BME280;64333;50.138;14.332;2023-06-22T04:29:29;98307.84;;;25.50;64.52
75717;BME280;64333;50.138;14.332;2023-06-22T04:31:58;98308.72;;;25.58;64.60
75717;BME280;64333;50.138;14.332;2023-06-22T04:34:24;98307.25;;;25.64;63.84
75717;BME280;64333;50.138;14.332;2023-06-22T04:36:53;98314.25;;;25.73;64.40
75717;BME280;64333;50.138;14.332;2023-06-22T04:39:18;98316.25;;;25.87;62.35
75717;BME280;64333;50.138;14.332;2023-06-22T04:41:44;98320.75;;;25.94;62.46
75717;BME280;64333;50.138;14.332;2023-06-22T04:44:15;98327.59;;;26.05;63.16
75717;BME280;64333;50.138;14.332;2023-06-22T04:46:51;98334.22;;;26.09;62.35
75717;BME280;64333;50.138;14.332;2023-06-22T04:49:24;98338.22;;;26.21;62.20
75717;BME280;64333;50.138;14.332;2023-06-22T04:51:59;98333.06;;;26.27;61.86
75717;BME280;64333;50.138;14.332;2023-06-22T04:54:24;98328.28;;;26.31;61.42
75717;BME280;64333;50.138;14.332;2023-06-22T04:56:50;98341.94;;;26.60;61.24
75717;BME280;64333;50.138;14.332;2023-06-22T04:59:24;98333.47;;;26.64;60.85
75717;BME280;64333;50.138;14.332;2023-06-22T05:02:00;98339.25;;;26.84;60.33
75717;BME280;64333;50.138;14.332;2023-06-22T05:04:27;98349.69;;;27.09;60.04
75717;BME280;64333;50.138;14.332;2023-06-22T05:07:01;98341.06;;;26.99;60.50
75717;BME280;64333;50.138;14.332;2023-06-22T05:09:27;98346.72;;;27.04;59.57
75717;BME280;64333;50.138;14.332;2023-06-22T05:11:52;98345.03;;;27.11;59.64
75717;BME280;64333;50.138;14.332;2023-06-22T05:14:18;98344.72;;;27.22;59.19
75717;BME280;64333;50.138;14.332;2023-06-22T05:16:45;98348.03;;;27.24;59.22
75717;BME280;64333;50.138;14.332;2023-06-22T05:19:11;98352.13;;;27.35;59.38
75717;BME280;64333;50.138;14.332;2023-06-22T05:21:37;98363.50;;;27.59;58.38
75717;BME280;64333;50.138;14.332;2023-06-22T05:24:03;98360.97;;;27.82;57.56
75717;BME280;64333;50.138;14.332;2023-06-22T05:26:30;98364.78;;;27.79;58.15
75717;BME280;64333;50.138;14.332;2023-06-22T05:28:56;98374.88;;;27.76;58.56
75717;BME280;64333;50.138;14.332;2023-06-22T05:31:22;98370.25;;;27.70;58.36
75717;BME280;64333;50.138;14.332;2023-06-22T05:33:50;98379.50;;;27.98;58.00
75717;BME280;64333;50.138;14.332;2023-06-22T05:36:16;98393.47;;;28.22;56.82
75717;BME280;64333;50.138;14.332;2023-06-22T05:38:42;98403.69;;;28.41;56.70
75717;BME280;64333;50.138;14.332;2023-06-22T05:41:08;98401.75;;;28.58;56.12
75717;BME280;64333;50.138;14.332;2023-06-22T05:43:33;98401.56;;;28.29;56.89
75717;BME280;64333;50.138;14.332;2023-06-22T05:46:04;98402.63;;;28.50;57.00
75717;BME280;64333;50.138;14.332;2023-06-22T05:48:30;98398.88;;;28.67;56.68
75717;BME280;64333;50.138;14.332;2023-06-22T05:50:55;98398.13;;;28.73;56.36
75717;BME280;64333;50.138;14.332;2023-06-22T05:53:21;98387.03;;;28.70;56.61
75717;BME280;64333;50.138;14.332;2023-06-22T05:55:46;98391.06;;;28.66;56.64
75717;BME280;64333;50.138;14.332;2023-06-22T05:58:12;98394.34;;;28.90;55.80
75717;BME280;64333;50.138;14.332;2023-06-22T06:00:38;98396.16;;;28.90;55.35
75717;BME280;64333;50.138;14.332;2023-06-22T06:03:04;98381.78;;;28.84;56.03
75717;BME280;64333;50.138;14.332;2023-06-22T06:05:31;98403.34;;;29.12;55.18
75717;BME280;64333;50.138;14.332;2023-06-22T06:07:57;98401.69;;;29.11;54.78
75717;BME280;64333;50.138;14.332;2023-06-22T06:10:23;98394.19;;;29.29;54.91
75717;BME280;64333;50.138;14.332;2023-06-22T06:12:48;98402.97;;;28.70;55.92
75717;BME280;64333;50.138;14.332;2023-06-22T06:15:13;98408.59;;;29.71;54.73
75717;BME280;64333;50.138;14.332;2023-06-22T06:17:49;98405.53;;;29.89;54.11
75717;BME280;64333;50.138;14.332;2023-06-22T06:20:17;98411.13;;;30.23;52.29
75717;BME280;64333;50.138;14.332;2023-06-22T06:22:43;98403.41;;;30.28;52.02
75717;BME280;64333;50.138;14.332;2023-06-22T06:25:08;98399.25;;;30.40;50.53
75717;BME280;64333;50.138;14.332;2023-06-22T06:27:34;98413.56;;;30.53;51.60
75717;BME280;64333;50.138;14.332;2023-06-22T06:29:59;98392.00;;;30.19;52.62
75717;BME280;64333;50.138;14.332;2023-06-22T06:32:25;98398.53;;;30.67;52.53
75717;BME280;64333;50.138;14.332;2023-06-22T06:34:50;98397.19;;;30.42;51.78
75717;BME280;64333;50.138;14.332;2023-06-22T06:37:16;98389.81;;;31.00;51.33
75717;BME280;64333;50.138;14.332;2023-06-22T06:39:42;98386.16;;;30.45;51.18
75717;BME280;64333;50.138;14.332;2023-06-22T06:42:07;98381.81;;;30.79;51.20
75717;BME280;64333;50.138;14.332;2023-06-22T06:44:33;98397.41;;;30.61;50.97
75717;BME280;64333;50.138;14.332;2023-06-22T06:46:58;98403.19;;;31.28;49.78
75717;BME280;64333;50.138;14.332;2023-06-22T06:49:24;98379.16;;;31.00;50.62
75717;BME280;64333;50.138;14.332;2023-06-22T06:51:49;98393.28;;;31.49;50.41
75717;BME280;64333;50.138;14.332;2023-06-22T06:54:15;98379.63;;;31.65;49.83
75717;BME280;64333;50.138;14.332;2023-06-22T06:56:40;98378.97;;;31.57;49.59
75717;BME280;64333;50.138;14.332;2023-06-22T06:59:09;98384.00;;;31.45;49.64
75717;BME280;64333;50.138;14.332;2023-06-22T07:01:35;98377.50;;;31.54;49.11
75717;BME280;64333;50.138;14.332;2023-06-22T07:04:00;98377.34;;;31.89;49.23
75717;BME280;64333;50.138;14.332;2023-06-22T07:06:26;98368.44;;;31.82;48.60
75717;BME280;64333;50.138;14.332;2023-06-22T07:08:55;98363.13;;;31.55;49.48
75717;BME280;64333;50.138;14.332;2023-06-22T07:11:20;98361.94;;;31.64;49.31
75717;BME280;64333;50.138;14.332;2023-06-22T07:13:46;98349.06;;;32.21;47.93
75717;BME280;64333;50.138;14.332;2023-06-22T07:16:11;98358.31;;;31.72;49.01
75717;BME280;64333;50.138;14.332;2023-06-22T07:18:37;98348.75;;;31.90;48.79
75717;BME280;64333;50.138;14.332;2023-06-22T07:21:04;98352.66;;;32.54;47.20
75717;BME280;64333;50.138;14.332;2023-06-22T07:23:31;98352.78;;;30.91;50.67
75717;BME280;64333;50.138;14.332;2023-06-22T07:25:57;98339.44;;;31.46;49.59
75717;BME280;64333;50.138;14.332;2023-06-22T07:28:22;98353.56;;;30.85;51.35
75717;BME280;64333;50.138;14.332;2023-06-22T07:30:47;98344.78;;;31.79;50.34
75717;BME280;64333;50.138;14.332;2023-06-22T07:33:13;98331.47;;;31.92;48.00
75717;BME280;64333;50.138;14.332;2023-06-22T07:35:38;98342.81;;;32.74;47.84
75717;BME280;64333;50.138;14.332;2023-06-22T07:38:04;98340.78;;;32.89;46.70
75717;BME280;64333;50.138;14.332;2023-06-22T07:40:29;98341.00;;;32.94;46.29
75717;BME280;64333;50.138;14.332;2023-06-22T07:42:54;98337.66;;;32.59;46.36
75717;BME280;64333;50.138;14.332;2023-06-22T07:45:20;98324.53;;;32.90;46.37
75717;BME280;64333;50.138;14.332;2023-06-22T07:47:45;98318.75;;;32.87;46.55
75717;BME280;64333;50.138;14.332;2023-06-22T07:50:11;98329.19;;;32.43;47.51
75717;BME280;64333;50.138;14.332;2023-06-22T07:52:36;98314.88;;;32.03;48.70
75717;BME280;64333;50.138;14.332;2023-06-22T07:55:02;98322.81;;;31.44;48.79
75717;BME280;64333;50.138;14.332;2023-06-22T07:57:28;98317.09;;;31.93;48.34
75717;BME280;64333;50.138;14.332;2023-06-22T07:59:59;98304.09;;;31.84;48.39
75717;BME280;64333;50.138;14.332;2023-06-22T08:02:26;98302.34;;;31.63;48.40
75717;BME280;64333;50.138;14.332;2023-06-22T08:04:52;98305.03;;;32.10;47.79
75717;BME280;64333;50.138;14.332;2023-06-22T08:07:17;98302.44;;;31.83;48.69
75717;BME280;64333;50.138;14.332;2023-06-22T08:09:48;98302.72;;;32.01;47.50
75717;BME280;64333;50.138;14.332;2023-06-22T08:12:14;98308.16;;;31.73;48.09
75717;BME280;64333;50.138;14.332;2023-06-22T08:14:42;98300.94;;;32.21;46.15
75717;BME280;64333;50.138;14.332;2023-06-22T08:17:09;98297.22;;;31.68;47.17
75717;BME280;64333;50.138;14.332;2023-06-22T08:19:34;98298.22;;;32.08;47.37
75717;BME280;64333;50.138;14.332;2023-06-22T08:22:00;98298.22;;;32.08;47.20
75717;BME280;64333;50.138;14.332;2023-06-22T08:24:25;98288.53;;;32.00;47.59
75717;BME280;64333;50.138;14.332;2023-06-22T08:26:55;98293.41;;;31.84;46.17
75717;BME280;64333;50.138;14.332;2023-06-22T08:29:21;98297.91;;;31.37;47.83
75717;BME280;64333;50.138;14.332;2023-06-22T08:31:46;98298.00;;;32.03;46.16
75717;BME280;64333;50.138;14.332;2023-06-22T08:34:11;98294.00;;;32.72;45.32
75717;BME280;64333;50.138;14.332;2023-06-22T08:36:37;98288.44;;;33.38;42.32
75717;BME280;64333;50.138;14.332;2023-06-22T08:39:06;98298.13;;;33.13;44.57
75717;BME280;64333;50.138;14.332;2023-06-22T08:41:31;98288.25;;;33.27;43.17
75717;BME280;64333;50.138;14.332;2023-06-22T08:43:57;98292.19;;;33.81;42.63
75717;BME280;64333;50.138;14.332;2023-06-22T08:46:23;98303.72;;;34.32;41.48
75717;BME280;64333;50.138;14.332;2023-06-22T08:48:56;98298.59;;;34.18;41.13
75717;BME280;64333;50.138;14.332;2023-06-22T08:51:23;98301.34;;;34.49;40.65
75717;BME280;64333;50.138;14.332;2023-06-22T08:53:50;98290.88;;;35.75;38.21
75717;BME280;64333;50.138;14.332;2023-06-22T08:56:16;98298.03;;;35.99;37.87
75717;BME280;64333;50.138;14.332;2023-06-22T08:58:41;98288.47;;;35.31;39.01
75717;BME280;64333;50.138;14.332;2023-06-22T09:01:07;98293.94;;;35.18;39.04
75717;BME280;64333;50.138;14.332;2023-06-22T09:03:32;98290.31;;;35.73;37.96
75717;BME280;64333;50.138;14.332;2023-06-22T09:06:01;98297.94;;;36.23;37.38
75717;BME280;64333;50.138;14.332;2023-06-22T09:08:27;98291.63;;;36.82;36.31
75717;BME280;64333;50.138;14.332;2023-06-22T09:10:52;98287.88;;;37.75;35.16
75717;BME280;64333;50.138;14.332;2023-06-22T09:13:18;98299.50;;;37.06;35.14
75717;BME280;64333;50.138;14.332;2023-06-22T09:15:44;98294.16;;;37.92;33.75
75717;BME280;64333;50.138;14.332;2023-06-22T09:18:13;98292.34;;;37.46;33.64
75717;BME280;64333;50.138;14.332;2023-06-22T09:20:39;98283.22;;;38.26;32.49
75717;BME280;64333;50.138;14.332;2023-06-22T09:23:04;98282.53;;;37.52;33.51
75717;BME280;64333;50.138;14.332;2023-06-22T09:25:29;98284.03;;;38.55;33.43
75717;BME280;64333;50.138;14.332;2023-06-22T09:27:55;98277.59;;;37.37;34.46
75717;BME280;64333;50.138;14.332;2023-06-22T09:30:21;98270.50;;;37.71;33.25
75717;BME280;64333;50.138;14.332;2023-06-22T09:32:47;98273.09;;;38.78;31.48
75717;BME280;64333;50.138;14.332;2023-06-22T09:35:12;98266.03;;;39.10;30.52
75717;BME280;64333;50.138;14.332;2023-06-22T09:37:39;98260.06;;;38.58;31.56
75717;BME280;64333;50.138;14.332;2023-06-22T09:40:06;98261.78;;;38.81;32.48
75717;BME280;64333;50.138;14.332;2023-06-22T09:42:38;98270.50;;;40.02;29.75
75717;BME280;64333;50.138;14.332;2023-06-22T09:45:04;98271.09;;;40.04;29.01
75717;BME280;64333;50.138;14.332;2023-06-22T09:47:30;98264.09;;;40.61;27.64
75717;BME280;64333;50.138;14.332;2023-06-22T09:49:56;98269.19;;;40.26;28.44
75717;BME280;64333;50.138;14.332;2023-06-22T09:52:22;98261.25;;;39.33;29.54
75717;BME280;64333;50.138;14.332;2023-06-22T09:54:47;98263.56;;;39.25;29.97
75717;BME280;64333;50.138;14.332;2023-06-22T09:57:13;98250.50;;;39.60;29.39
75717;BME280;64333;50.138;14.332;2023-06-22T09:59:39;98244.53;;;39.79;28.60
75717;BME280;64333;50.138;14.332;2023-06-22T10:02:08;98241.06;;;41.36;26.88
75717;BME280;64333;50.138;14.332;2023-06-22T10:04:34;98235.25;;;40.49;27.61
75717;BME280;64333;50.138;14.332;2023-06-22T10:07:01;98242.91;;;41.77;25.58
75717;BME280;64333;50.138;14.332;2023-06-22T10:09:26;98252.03;;;42.62;24.93
75717;BME280;64333;50.138;14.332;2023-06-22T10:11:52;98242.16;;;41.96;25.76
75717;BME280;64333;50.138;14.332;2023-06-22T10:14:18;98229.72;;;42.75;25.61
75717;BME280;64333;50.138;14.332;2023-06-22T10:16:44;98236.81;;;41.08;27.31
75717;BME280;64333;50.138;14.332;2023-06-22T10:19:09;98246.69;;;41.29;26.77
75717;BME280;64333;50.138;14.332;2023-06-22T10:21:35;98247.78;;;44.23;23.63
75717;BME280;64333;50.138;14.332;2023-06-22T10:24:02;98244.16;;;42.76;25.53
75717;BME280;64333;50.138;14.332;2023-06-22T10:26:34;98250.41;;;42.91;25.17
75717;BME280;64333;50.138;14.332;2023-06-22T10:29:02;98241.94;;;43.18;25.02
75717;BME280;64333;50.138;14.332;2023-06-22T10:31:28;98239.50;;;43.11;24.26
75717;BME280;64333;50.138;14.332;2023-06-22T10:33:54;98243.34;;;43.00;24.24
75717;BME280;64333;50.138;14.332;2023-06-22T10:36:21;98236.28;;;42.89;24.59
75717;BME280;64333;50.138;14.332;2023-06-22T10:38:47;98236.34;;;43.63;22.68
75717;BME280;64333;50.138;14.332;2023-06-22T10:41:13;98237.22;;;45.64;21.04
75717;BME280;64333;50.138;14.332;2023-06-22T10:43:39;98234.09;;;42.91;23.86
75717;BME280;64333;50.138;14.332;2023-06-22T10:46:05;98221.19;;;43.47;22.73
75717;BME280;64333;50.138;14.332;2023-06-22T10:48:30;98233.31;;;45.23;20.88
75717;BME280;64333;50.138;14.332;2023-06-22T10:50:56;98228.53;;;43.41;22.74
75717;BME280;64333;50.138;14.332;2023-06-22T10:53:22;98221.38;;;45.61;21.00
75717;BME280;64333;50.138;14.332;2023-06-22T10:55:47;98224.44;;;44.79;21.58
75717;BME280;64333;50.138;14.332;2023-06-22T10:58:13;98217.69;;;46.31;19.13
75717;BME280;64333;50.138;14.332;2023-06-22T11:00:39;98212.34;;;45.84;19.83
75717;BME280;64333;50.138;14.332;2023-06-22T11:03:04;98215.06;;;45.19;21.78
75717;BME280;64333;50.138;14.332;2023-06-22T11:05:31;98213.06;;;45.29;20.84
75717;BME280;64333;50.138;14.332;2023-06-22T11:07:57;98207.56;;;46.13;20.02
75717;BME280;64333;50.138;14.332;2023-06-22T11:10:23;98204.56;;;45.96;20.41
75717;BME280;64333;50.138;14.332;2023-06-22T11:12:48;98195.53;;;44.16;22.36
75717;BME280;64333;50.138;14.332;2023-06-22T11:15:13;98198.41;;;46.04;20.16
75717;BME280;64333;50.138;14.332;2023-06-22T11:17:39;98183.84;;;46.59;19.86
75717;BME280;64333;50.138;14.332;2023-06-22T11:20:05;98190.38;;;45.29;21.37
75717;BME280;64333;50.138;14.332;2023-06-22T11:22:38;98183.34;;;40.31;28.09
75717;BME280;64333;50.138;14.332;2023-06-22T11:25:05;98164.69;;;40.03;27.96
75717;BME280;64333;50.138;14.332;2023-06-22T11:27:30;98178.88;;;43.06;24.88
75717;BME280;64333;50.138;14.332;2023-06-22T11:29:55;98181.06;;;43.72;23.02
75717;BME280;64333;50.138;14.332;2023-06-22T11:32:21;98178.53;;;44.58;21.80
75717;BME280;64333;50.138;14.332;2023-06-22T11:34:46;98160.81;;;43.25;23.48
75717;BME280;64333;50.138;14.332;2023-06-22T11:37:11;98154.66;;;41.74;25.96
75717;BME280;64333;50.138;14.332;2023-06-22T11:39:37;98144.88;;;39.98;28.45
75717;BME280;64333;50.138;14.332;2023-06-22T11:42:02;98150.13;;;41.28;26.82
75717;BME280;64333;50.138;14.332;2023-06-22T11:44:28;98152.38;;;43.31;23.16
75717;BME280;64333;50.138;14.332;2023-06-22T11:46:53;98156.25;;;45.31;20.85
75717;BME280;64333;50.138;14.332;2023-06-22T11:49:18;98156.69;;;47.98;18.39
75717;BME280;64333;50.138;14.332;2023-06-22T11:51:44;98156.47;;;50.11;16.58
75717;BME280;64333;50.138;14.332;2023-06-22T11:54:09;98151.59;;;48.05;17.83
75717;BME280;64333;50.138;14.332;2023-06-22T11:56:34;98145.47;;;48.30;18.73
75717;BME280;64333;50.138;14.332;2023-06-22T11:59:00;98153.63;;;46.96;18.42
75717;BME280;64333;50.138;14.332;2023-06-22T12:01:25;98146.66;;;46.26;20.50
75717;BME280;64333;50.138;14.332;2023-06-22T12:03:50;98137.63;;;42.54;24.08
75717;BME280;64333;50.138;14.332;2023-06-22T12:06:16;98144.38;;;42.06;25.31
75717;BME280;64333;50.138;14.332;2023-06-22T12:08:41;98132.84;;;44.73;21.78
75717;BME280;64333;50.138;14.332;2023-06-22T12:11:07;98144.03;;;45.84;21.30
75717;BME280;64333;50.138;14.332;2023-06-22T12:13:32;98145.97;;;46.66;19.55
75717;BME280;64333;50.138;14.332;2023-06-22T12:15:57;98141.06;;;44.97;21.56
75717;BME280;64333;50.138;14.332;2023-06-22T12:18:23;98130.28;;;45.52;20.82
75717;BME280;64333;50.138;14.332;2023-06-22T12:20:48;98144.09;;;44.38;22.02
75717;BME280;64333;50.138;14.332;2023-06-22T12:23:14;98132.22;;;46.71;20.41
75717;BME280;64333;50.138;14.332;2023-06-22T12:25:40;98110.28;;;48.23;17.83
75717;BME280;64333;50.138;14.332;2023-06-22T12:28:05;98133.28;;;48.88;17.83
75717;BME280;64333;50.138;14.332;2023-06-22T12:30:32;98103.94;;;44.49;21.25
75717;BME280;64333;50.138;14.332;2023-06-22T12:32:58;98103.75;;;43.15;23.56
75717;BME280;64333;50.138;14.332;2023-06-22T12:35:24;98092.25;;;42.24;24.65
75717;BME280;64333;50.138;14.332;2023-06-22T12:37:49;98093.28;;;42.68;24.61
75717;BME280;64333;50.138;14.332;2023-06-22T12:40:15;98096.34;;;44.12;22.58
75717;BME280;64333;50.138;14.332;2023-06-22T12:42:40;98092.94;;;44.82;22.36
75717;BME280;64333;50.138;14.332;2023-06-22T12:45:08;98095.06;;;44.33;22.24
75717;BME280;64333;50.138;14.332;2023-06-22T12:47:33;98084.69;;;45.71;21.33
75717;BME280;64333;50.138;14.332;2023-06-22T12:49:59;98081.31;;;46.43;20.70
75717;BME280;64333;50.138;14.332;2023-06-22T12:52:25;98086.53;;;47.12;19.50
75717;BME280;64333;50.138;14.332;2023-06-22T12:54:50;98080.31;;;48.05;18.20